Member area
Imprimable
Jurbise, 16/09/2017, BEL - La Forestière
List of reports > Delhalle-La Forestière - Result
Search: Page: [1]
83 Entries
 
Complains are not accepted anymore. Results are final.
PlaceNrNameAgeNATLeagueTeamRealTimeTkmMoy.ScrPtsCity
1.3400MONTOISY ADRIEN30BELTRAINING 748:4548:463:25 17.6011159
2.141STROLLO SERGIO29BELURBANTRITEAM50:1450:143:31 17.0821127BEERSEL
3.3552DECAMK FRANÇOIS31BELMADRES50:1550:153:31 17.0831126BUVRINNES
4.668OUMAROU YAHAYA30BELCSFMYSTERE51:0051:003:34 16.8341110ANDERLECHT
5.2778VAN DER HOEVEN BERT28BELSNA WELLE51:4051:403:37 16.6151096WELLE
6.3351NINFORGE GUILLAUME31BELET CHIEVRES53:3853:383:45 16.0071055
7.338HEUNINCK ALEXANDRE28BEL54:4054:413:50 15.69111032BRUXELLES
8.3258GOBERT CHRISTOPHE38BELSPIBO55:2355:233:53 15.49141016
9.421WEYNANTS BIRGER36BEL55:2755:283:53 15.47151014HOLSBEEK
10.3414FLYPO ANTOINE23BEL55:5055:503:55 15.37171005
11.219KOLP VINCENT30BELET ENGHIEN56:2256:243:57 15.2219993HORRUES
12.3295BUIS QUENTIN29BELRONVAU56:4856:493:59 15.1020985
13.3321CALIN THOMAS33BELTTR56:5856:594:00 15.0621981
14.173ROB VINCENT33BELFLEU57:0057:024:00 15.0522980WANFERCÉE-BAULET
15.3555WATTIER DAVY36BELLPR 4457:3957:394:02 14.8823967MONT-SAINTE-ALDEGONDE
16.556RATINCKX JEAN PHILIPPE29BELRIWA59:4259:434:11 14.3729926OTTIGNIES
17.3378DI LELLA LEANDRO27BEL59:3859:534:12 14.3331926
18.3410COLLAER CHRISTOPHE34BEL1:00:221:00:234:14 14.2134910
19.3426AUBECQ BERTRAND24BELTCDM1:01:411:01:424:19 13.9138884
20.3331PIERMAN GUILLAUME26BELELRATON RUNNING1:01:481:01:504:20 13.8841880
21.3409MEINGUET DORIAN31BELCEPAL1:01:591:01:594:21 13.8442876
22.66MUHAMMAD NABI NOORULAH22AFGBAIL RUN1:02:241:02:244:22 13.7546866YVOIR
23.3547CREER GEOFFREY32BEL1:02:351:02:364:23 13.7148861AUDERGHEM
24.642HANQUET AXEL37BELRONVAU1:03:001:03:014:25 13.6252851GEMBLOUX
25.3546CORDIER NICOLAS39BEL1:03:381:03:544:29 13.4359835MASNUY-SAINT-JEAN
26.3446BENIT LAURENT31BEL1:03:521:04:004:29 13.4161830
27.3405MABILLE OLIVIER38BELVERTIGO1:04:021:04:054:29 13.3964824
28.387BOSKIN BERNARD29BELLES IDYLLES1:04:071:04:084:30 13.3865822STAVELOT
29.2777PUOZZO NATHAN27BELARAMIS RUNNING MONS1:04:081:04:114:30 13.3767820HARCHIES
30.3406MOL JENATHAN23BEL1:04:041:04:124:30 13.3668820
31.2771BOCKLANDT JULIAN35BELTHEODO TEMPO1:04:341:04:354:31 13.2972809MONS
32.3375FAGNOT FABIEN37BEL1:05:151:05:204:35 13.1374796
33.3264DELCAMPE REMY26BEL1:05:461:05:474:36 13.0478785
34.3399HEURION BETRAND37BELVERTIGO1:06:181:06:224:39 12.9382773
35.696LECLEF SEBASTIEN37BELCSFMYSTERE1:06:511:06:524:41 12.8385763FOREST
36.2770HENRIET ALEXANDRE35BELSPIBO1:07:001:07:014:42 12.8086759GHLIN
37.3560DEVELLE VIVIEN37BEL1:07:461:07:464:45 12.6694741MAFFLE
38.3541CATY TIMOTHÉE36BELTCDM1:08:121:08:204:47 12.5698731OBOURG
39.3548WANET DAMIEN31BEL1:08:201:08:284:48 12.53101726FLEURUS
40.3431VAN KERKHOVE BASTIEN25BEL1:08:291:08:354:48 12.51103723
41.933LAMBERT FRANÇOIS30BELRONVAU1:08:371:08:374:48 12.51105719PERWEZ
42.3376MATHELART JULIEN31BELNENETTE RC1:09:051:09:064:50 12.42108709
43.319WALGRAEVE GILLES31BEL1:09:381:09:514:54 12.28113697WAVRE
44.2775LEFEBVRE DAMIEN28BEL1:09:541:09:564:54 12.27114692BRUGELETTE
45.3444JUNGST DAVID30BEL1:10:041:10:094:55 12.23116688
46.3293CLAUS CÉDRIC39BELVERTIGO1:10:421:10:494:58 12.12122674
47.3363HAUTENAUVE BENJAMIN37BEL1:11:301:11:335:01 11.99126659
48.3412DEWEZ BASTIEN30BELREDEBAT1:12:201:12:375:05 11.82133641
49.2757CORDISCO GRÉGORY39BEL1:12:201:12:395:05 11.81136638VILLERS SAINT GHISLAIN
50.3381VERMEULEN GEOFFREY38BEL1:13:021:13:195:08 11.70146620
51.152PAGE THIBAUT36BELJC INCOURT1:14:251:14:355:13 11.51158591INCOURT
52.3575REBELLA DAMIEN36BELJC BAUDOUR1:14:501:15:095:16 11.42167578BAUDOUR
53.2758BOUILLON HUGUES38BEL1:14:511:15:135:16 11.41168577MASNUY SAINT JEAN
54.3562FEVRIER KEVIN29BEL1:15:021:15:135:16 11.411695747604
55.2767BERTRAND DOMINIQUE39BELTHEODO TEMPO1:15:141:15:205:17 11.39172568BAUDOUR
56.3564CORTVRINT QUENTIN28BELAPPH1:15:011:15:255:17 11.38173570MANAGE
57.3344DEFER JEAN-CLAUDE37BELARAMIS RUNNING MONS1:15:511:16:025:19 11.29181552
58.3443BIENFAIT BENJAMIN34BEL1:15:421:16:055:20 11.28183553
59.3415OPSOMER BRUNO37BELLES PÔTES Ô MALTES1:16:071:16:185:21 11.25186545
60.3437DELEPINE ANTOINE39BEL1:16:241:16:375:22 11.20193535
61.3252FERRETI JONATHAN37BELVERTIGO1:16:271:16:495:23 11.17195533
62.3362GENERET LUDOVIC32BEL1:16:501:16:575:23 11.15200523
63.3577MANET PIERRE33FRA1:16:381:17:075:24 11.13204523ERBISOEUL
64.3413SEMET JULIEN36BELLES PÔTES Ô MALTES1:17:001:17:115:24 11.12205517
65.3285BAY MATHIEU38BEL1:18:471:18:585:32 10.87217483
66.3563HUARD MAXIME35BEL1:19:121:19:235:34 10.81225471MAISIERES
67.3402CAUCHIES PIERRE-JULES35BEL1:20:531:21:085:41 10.58254426
68.3579CRESSY GUILLAUME34BEL1:21:031:21:245:42 10.54256422MELDERT
69.3580MOULIN BENOIT32BEL1:21:041:21:245:42 10.54257421SCHAERBEEK
70.3303DE VREESE SEBASTIEN38BELJC ESTINNES1:21:171:21:395:43 10.51259417
71.3269WILANTE CHRISTOPHER32BELSPIBO1:23:201:23:275:51 10.28285369
72.3407OLIVA ROSARIO37BEL1:23:351:23:585:53 10.22289363
73.707NEMANN BRUNO35BELRCNAMUR1:25:291:25:516:01 10.00304327WARTET
74.3382MARTENS GUILLAUME FREDDY38BEL1:27:411:27:416:08 9.79317290JURBISE
75.3296DARCK JONATHAN24BEL1:27:321:27:486:09 9.77318291
76.3403MELOT JULIEN22BEL1:27:441:28:096:10 9.73325283
77.3427LOISELET PIERRE35BELLES AMIS JOGGEURS1:29:051:29:286:16 9.59340255
78.3428TACCOGNA MARIO39BEL1:29:051:29:286:16 9.59341254
79.3448COLLE LUDOVIC36BEL1:31:201:31:406:25 9.36351220
80.2759LEFEBVRE MICHAEL38BEL1:32:211:32:266:28 9.28356204OGY
81.3424URBAIN WILLIAM32BEL1:34:301:34:516:38 9.05367171
82.3281PINNA GEOFFREY24BELFORESTIERE1:50:341:50:517:46 7.744014
83.3387CRUNELLE GREGORY39BEL1:55:081:55:288:05 7.434061
DNF: did not finish; DSQ: disqualified; Speed in km/h
Page: [1]